Time;durP1;ratioP1;P1;durP2;ratioP2;P2;SDS_P1;SDS_P2;PMS_P1;PMS_P2;Temp;Humidity;BMP_temperature;BMP_pressure;BME280_temperature;BME280_humidity;BME280_pressure;Samples;Min_cycle;Max_cycle;Signal;HPM_P1;HPM_P2
2021/04/15 00:01:43;;;;;;;3.65;3.35;;;;;;;;;;5009862;28;20468;-73
2021/04/15 00:04:10;;;;;;;3.50;3.20;;;;;;;;;;5009789;28;20729;-76
2021/04/15 00:06:36;;;;;;;3.45;3.10;;;;;;;;;;5009672;28;20385;-74
2021/04/15 00:09:07;;;;;;;5.20;2.92;;;;;;;;;;5010045;28;20368;-73
2021/04/15 00:11:34;;;;;;;4.25;3.20;;;;;;;;;;5009979;28;20417;-73
2021/04/15 00:14:00;;;;;;;4.30;3.27;;;;;;;;;;4992421;28;20602;-73
2021/04/15 00:16:27;;;;;;;4.47;3.67;;;;;;;;;;5009107;28;20429;-73
2021/04/15 00:18:53;;;;;;;3.97;3.47;;;;;;;;;;5009812;28;20409;-73
2021/04/15 00:21:21;;;;;;;3.47;3.00;;;;;;;;;;5008975;28;20820;-73
2021/04/15 00:23:47;;;;;;;4.03;3.17;;;;;;;;;;5009763;28;20417;-74
2021/04/15 00:26:14;;;;;;;3.58;3.28;;;;;;;;;;5008929;28;20377;-73
2021/04/15 00:28:40;;;;;;;2.90;2.70;;;;;;;;;;5009863;28;20865;-73
2021/04/15 00:31:06;;;;;;;3.90;3.10;;;;;;;;;;5010117;28;20377;-72
2021/04/15 00:33:32;;;;;;;3.60;3.30;;;;;;;;;;4990752;28;20381;-72
2021/04/15 00:35:59;;;;;;;5.67;3.50;;;;;;;;;;5009716;28;20481;-73
2021/04/15 00:38:26;;;;;;;4.60;3.50;;;;;;;;;;4991403;28;20404;-73
2021/04/15 00:40:52;;;;;;;3.45;3.15;;;;;;;;;;5009443;28;20388;-73
2021/04/15 00:43:20;;;;;;;3.58;3.28;;;;;;;;;;5008769;28;20397;-73
2021/04/15 00:45:47;;;;;;;4.20;3.70;;;;;;;;;;5009540;28;20776;-73
2021/04/15 00:48:13;;;;;;;5.28;3.10;;;;;;;;;;5009126;28;20388;-75
2021/04/15 00:50:47;;;;;;;3.57;3.27;;;;;;;;;;5009551;28;20745;-72
2021/04/15 00:53:15;;;;;;;4.10;3.63;;;;;;;;;;5008664;28;20376;-73
2021/04/15 00:55:44;;;;;;;3.70;3.30;;;;;;;;;;4991872;28;20707;-73
2021/04/15 00:58:10;;;;;;;3.08;2.70;;;;;;;;;;5009302;28;20409;-75
2021/04/15 01:00:36;;;;;;;3.95;3.55;;;;;;;;;;4991583;28;20425;-74
2021/04/15 01:03:03;;;;;;;4.30;3.38;;;;;;;;;;5009655;28;20460;-73
2021/04/15 01:05:37;;;;;;;4.10;3.13;;;;;;;;;;5008749;28;20377;-73
2021/04/15 01:08:03;;;;;;;3.30;2.70;;;;;;;;;;5009606;28;20381;-73
2021/04/15 01:10:30;;;;;;;4.53;3.20;;;;;;;;;;4990772;28;20396;-73
2021/04/15 01:13:18;;;;;;;3.13;2.83;;;;;;;;;;5009516;28;20389;-73
2021/04/15 01:15:53;;;;;;;3.20;2.80;;;;;;;;;;5009312;28;20412;-73
2021/04/15 01:18:30;;;;;;;3.58;3.28;;;;;;;;;;5008551;28;20508;-73
2021/04/15 01:21:10;;;;;;;3.33;3.03;;;;;;;;;;5009440;28;20520;-73
2021/04/15 01:24:07;;;;;;;3.22;2.72;;;1.40;99.90;;;;;;5009282;28;20381;-73
2021/04/15 01:26:59;;;;;;;4.43;2.63;;;;;;;;;;4988829;28;20471;-73
2021/04/15 01:29:37;;;;;;;3.38;3.08;;;;;;;;;;5008461;28;20387;-73
2021/04/15 01:32:16;;;;;;;3.33;3.03;;;;;;;;;;5008949;28;20385;-73
2021/04/15 01:34:45;;;;;;;3.40;2.70;;;;;;;;;;5009280;28;20377;-73
2021/04/15 01:37:20;;;;;;;3.15;2.60;;;;;;;;;;5008929;28;20718;-75
2021/04/15 01:40:09;;;;;;;3.15;2.50;;;;;;;;;;5009071;28;20405;-72
2021/04/15 01:43:02;;;;;;;3.03;2.72;;;;;;;;;;4995308;28;20428;-73
2021/04/15 01:45:29;;;;;;;3.38;3.08;;;;;;;;;;5006300;28;20478;-73
2021/04/15 01:47:57;;;;;;;2.65;2.35;;;;;;;;;;4994862;28;20439;-73
2021/04/15 01:50:29;;;;;;;2.60;2.22;;;;;;;;;;4994056;28;20381;-73
2021/04/15 01:52:58;;;;;;;3.37;3.07;;;;;;;;;;4994799;28;20388;-73
2021/04/15 01:55:30;;;;;;;4.28;2.90;;;;;;;;;;5011764;28;20376;-73
2021/04/15 01:58:02;;;;;;;2.75;2.55;;;;;;;;;;4994813;28;20412;-73
2021/04/15 02:00:31;;;;;;;3.17;2.88;;;;;;;;;;5011884;28;20385;-72
2021/04/15 02:03:02;;;;;;;2.50;2.30;;;;;;;;;;5012359;28;20451;-72
2021/04/15 02:05:31;;;;;;;3.85;3.03;;;;;;;;;;5011900;28;20709;-73
2021/04/15 02:08:12;;;;;;;3.40;2.80;;;;;;;;;;5012235;28;20380;-73
2021/04/15 02:10:41;;;;;;;2.78;2.58;;;;;;;;;;5011369;28;20595;-72
2021/04/15 02:13:08;;;;;;;2.72;2.53;;;;;;;;;;5012124;28;20424;-73
2021/04/15 02:15:45;;;;;;;4.03;3.60;;;;;;;;;;5011050;28;21035;-73
2021/04/15 02:18:13;;;;;;;4.35;3.53;;;;;;;;;;5011700;28;20885;-73
2021/04/15 02:20:39;;;;;;;3.53;3.05;;;;;;;;;;5010939;28;20380;-73
2021/04/15 02:23:07;;;;;;;3.15;2.85;;;;;;;;;;4994610;28;20389;-73
2021/04/15 02:25:40;;;;;;;3.42;2.80;;;;;;;;;;5010817;28;20471;-73
2021/04/15 02:28:20;;;;;;;3.78;3.10;;;;;;;;;;5012041;28;20810;-73
2021/04/15 02:30:54;;;;;;;3.47;2.90;;;;;;;;;;5011709;28;20369;-73
2021/04/15 02:33:24;;;;;;;3.40;3.10;;;;;;;;;;5011244;28;20455;-74
2021/04/15 02:35:53;;;;;;;3.28;2.97;;;;;;;;;;5011627;28;20726;-73
2021/04/15 02:38:23;;;;;;;4.95;3.50;;;;;;;;;;5011236;28;20404;-75
2021/04/15 02:40:51;;;;;;;5.55;3.58;;;;;;;;;;5011179;28;20392;-73
2021/04/15 02:43:24;;;;;;;4.70;3.30;;;;;;;;;;5011163;28;20731;-75
2021/04/15 02:45:53;;;;;;;3.88;3.10;;;;;;;;;;5011664;28;20385;-73
2021/04/15 02:48:24;;;;;;;6.70;4.20;;;;;;;;;;5010920;28;20401;-75
2021/04/15 02:50:55;;;;;;;3.95;3.50;;;;;;;;;;5011290;28;20400;-73
2021/04/15 02:53:25;;;;;;;3.22;2.90;;;;;;;;;;5010868;28;20364;-73
2021/04/15 02:55:58;;;;;;;3.67;3.38;;;;;;;;;;5010998;28;20377;-74
2021/04/15 02:58:28;;;;;;;4.60;3.60;;;;;;;;;;5010574;28;20471;-73
2021/04/15 03:00:55;;;;;;;3.88;3.22;;;;;;;;;;5011173;28;20395;-73
2021/04/15 03:03:25;;;;;;;3.83;3.40;;;0.90;99.90;;;;;;5010459;28;20365;-75
2021/04/15 03:06:02;;;;;;;3.85;3.50;;;;;;;;;;5010849;28;20746;-73
2021/04/15 03:08:28;;;;;;;4.18;3.10;;;;;;;;;;5010366;28;20373;-73
2021/04/15 03:10:57;;;;;;;4.78;3.63;;;;;;;;;;4993342;28;20439;-73
2021/04/15 03:13:31;;;;;;;3.70;3.40;;;;;;;;;;4993001;28;20722;-73
2021/04/15 03:16:04;;;;;;;4.25;3.30;;;;;;;;;;5010994;28;20377;-73
2021/04/15 03:18:50;;;;;;;4.30;3.75;;;;;;;;;;4992542;28;20491;-73
2021/04/15 03:21:16;;;;;;;4.53;3.80;;;;;;;;;;5010810;28;20388;-73
2021/04/15 03:23:51;;;;;;;4.57;3.70;;;;;;;;;;5010482;28;20393;-73
2021/04/15 03:26:37;;;;;;;4.80;3.75;;;;;;;;;;5010623;28;20753;-73
2021/04/15 03:29:23;;;;;;;3.88;3.47;;;;;;;;;;5010676;28;20424;-73
2021/04/15 03:31:52;;;;;;;5.10;3.50;;;;;;;;;;5010711;28;20423;-73
2021/04/15 03:34:22;;;;;;;4.45;3.55;;;;;;;;;;5010430;28;20884;-74
2021/04/15 03:36:51;;;;;;;5.23;3.57;;;;;;;;;;5010710;28;20514;-73
2021/04/15 03:39:20;;;;;;;3.38;3.03;;;;;;;;;;5010700;28;20480;-73
2021/04/15 03:41:48;;;;;;;5.47;4.22;;;;;;;;;;5010142;28;20428;-73
2021/04/15 03:44:34;;;;;;;5.25;3.80;;;;;;;;;;5010698;28;20401;-73
2021/04/15 03:47:03;;;;;;;4.03;3.40;;;;;;;;;;5010414;28;20381;-73
2021/04/15 03:49:38;;;;;;;4.53;3.30;;;;;;;;;;4991999;28;20389;-73
2021/04/15 03:52:08;;;;;;;4.53;3.13;;;;;;;;;;5010182;28;20423;-73
2021/04/15 03:54:39;;;;;;;3.50;3.20;;;;;;;;;;5009494;28;20443;-73
2021/04/15 03:57:06;;;;;;;4.00;3.23;;;;;;;;;;5010006;28;20431;-73
2021/04/15 03:59:38;;;;;;;3.63;3.33;;;;;;;;;;5009611;28;20993;-73
2021/04/15 04:02:12;;;;;;;3.75;3.10;;;0.70;99.90;;;;;;5010468;28;20452;-73
2021/04/15 04:04:44;;;;;;;3.50;3.20;;;;;;;;;;5010067;28;20535;-73
2021/04/15 04:07:15;;;;;;;3.60;3.30;;;;;;;;;;5009646;28;20384;-73
2021/04/15 04:09:48;;;;;;;4.50;3.50;;;;;;;;;;5009525;28;20421;-73
2021/04/15 04:12:36;;;;;;;6.30;3.42;;;;;;;;;;5010281;28;20447;-73
2021/04/15 04:15:20;;;;;;;4.60;3.20;;;;;;;;;;5010327;28;20468;-73
2021/04/15 04:17:51;;;;;;;3.72;3.42;;;;;;;;;;5009852;28;20416;-73
2021/04/15 04:20:18;;;;;;;4.13;3.60;;;;;;;;;;5009956;28;20849;-73
2021/04/15 04:23:10;;;;;;;3.35;3.05;;;0.60;99.90;;;;;;4992049;28;21050;-73
2021/04/15 04:25:53;;;;;;;4.07;3.55;;;;;;;;;;5009475;28;20400;-73
2021/04/15 04:28:24;;;;;;;4.93;3.53;;;;;;;;;;5010086;28;20810;-73
2021/04/15 04:31:00;;;;;;;5.20;3.20;;;0.60;99.90;;;;;;5009879;28;20397;-73
2021/04/15 04:33:38;;;;;;;4.97;4.18;;;;;;;;;;5009408;28;20384;-76
2021/04/15 04:36:05;;;;;;;4.10;3.70;;;;;;;;;;5010202;28;20881;-73
2021/04/15 04:38:32;;;;;;;4.40;3.40;;;;;;;;;;5006004;28;20416;-73
2021/04/15 04:41:00;;;;;;;5.28;4.07;;;;;;;;;;5006974;28;20793;-73
2021/04/15 04:43:50;;;;;;;4.07;3.60;;;-0.20;99.90;;;;;;5005892;28;20421;-75
2021/04/15 04:46:31;;;;;;;4.63;3.93;;;;;;;;;;5009644;28;20394;-73
2021/04/15 04:49:01;;;;;;;6.20;4.28;;;;;;;;;;4991947;28;20411;-74
2021/04/15 04:51:39;;;;;;;4.13;3.55;;;;;;;;;;5008613;28;20434;-76
2021/04/15 04:54:05;;;;;;;5.63;4.00;;;;;;;;;;5009931;28;20380;-72
2021/04/15 04:56:39;;;;;;;5.05;4.10;;;;;;;;;;5008802;28;20388;-73
2021/04/15 04:59:15;;;;;;;4.05;3.60;;;;;;;;;;5000878;28;20989;-73
2021/04/15 05:01:41;;;;;;;4.68;4.07;;;;;;;;;;5007923;28;20387;-74
2021/04/15 05:04:08;;;;;;;4.40;3.72;;;;;;;;;;5009582;28;20387;-73
2021/04/15 05:06:35;;;;;;;5.00;4.38;;;;;;;;;;5009036;28;20377;-74
2021/04/15 05:09:01;;;;;;;4.40;4.00;;;;;;;;;;5008786;28;20943;-73
2021/04/15 05:11:29;;;;;;;5.78;4.43;;;;;;;;;;5008682;28;20400;-75
2021/04/15 05:13:55;;;;;;;4.90;4.05;;;;;;;;;;5009187;28;20369;-74
2021/04/15 05:16:22;;;;;;;5.93;4.90;;;;;;;;;;5005111;28;20399;-74
2021/04/15 05:18:48;;;;;;;4.22;3.67;;;;;;;;;;5007900;28;20392;-74
2021/04/15 05:21:19;;;;;;;5.65;4.13;;;;;;;;;;5008981;28;20384;-75
2021/04/15 05:24:03;;;;;;;6.25;4.35;;;;;;;;;;5011371;28;20373;-75
2021/04/15 05:26:33;;;;;;;4.40;3.40;;;;;;;;;;5012314;28;20377;-75
2021/04/15 05:29:00;;;;;;;4.97;4.00;;;;;;;;;;5013155;28;20369;-74
2021/04/15 05:31:28;;;;;;;4.22;3.72;;;;;;;;;;5009684;28;20863;-76
2021/04/15 05:33:55;;;;;;;5.00;4.00;;;;;;;;;;5013049;28;20381;-75
2021/04/15 05:36:21;;;;;;;4.28;3.78;;;;;;;;;;5010573;28;20377;-74
2021/04/15 05:38:49;;;;;;;4.70;4.07;;;;;;;;;;5012586;28;20420;-74
2021/04/15 05:41:19;;;;;;;4.93;4.00;;;;;;;;;;5012780;28;20381;-74
2021/04/15 05:43:48;;;;;;;4.57;3.90;;;;;;;;;;5012393;28;20500;-74
2021/04/15 05:46:19;;;;;;;5.32;4.28;;;;;;;;;;5012625;28;20459;-75
2021/04/15 05:48:46;;;;;;;6.35;4.07;;;;;;;;;;5012322;28;20466;-75
2021/04/15 05:51:14;;;;;;;5.80;4.43;;;;;;;;;;5012638;28;20953;-75
2021/04/15 05:53:44;;;;;;;4.78;4.13;;;1.20;99.90;;;;;;5005390;28;20381;-74
2021/04/15 05:56:15;;;;;;;5.65;4.35;;;;;;;;;;4989880;28;20434;-74
2021/04/15 05:58:51;;;;;;;5.40;4.10;;;;;;;;;;4993847;28;20494;-75
2021/04/15 06:01:24;;;;;;;5.97;4.07;;;;;;;;;;4990893;28;20818;-74
2021/04/15 06:03:51;;;;;;;5.07;4.35;;;;;;;;;;4992041;28;20855;-75
2021/04/15 06:06:19;;;;;;;4.70;4.03;;;;;;;;;;4992995;28;20385;-74
2021/04/15 06:08:47;;;;;;;5.05;4.53;;;;;;;;;;4992130;28;20444;-74
2021/04/15 06:11:16;;;;;;;7.97;4.85;;;;;;;;;;4992637;28;20922;-75
2021/04/15 06:13:44;;;;;;;6.05;4.45;;;;;;;;;;4973554;28;20401;-76
2021/04/15 06:16:24;;;;;;;7.90;4.80;;;;;;;;;;4972519;28;20421;-75
2021/04/15 06:18:52;;;;;;;5.13;4.57;;;;;;;;;;4992937;28;20473;-73
2021/04/15 06:21:27;;;;;;;6.13;4.82;;;;;;;;;;4985695;28;20401;-74
2021/04/15 06:23:58;;;;;;;5.53;4.37;;;;;;;;;;4991575;28;20383;-75
2021/04/15 06:26:42;;;;;;;5.45;4.60;;;;;;;;;;4993452;28;20554;-75
2021/04/15 06:29:27;;;;;;;5.80;4.70;;;;;;;;;;4992512;28;20391;-74
2021/04/15 06:31:57;;;;;;;6.68;4.55;;;;;;;;;;4988007;28;20570;-74
2021/04/15 06:34:23;;;;;;;4.70;3.80;;;;;;;;;;4991979;28;20386;-74
2021/04/15 06:36:59;;;;;;;5.07;4.15;;;;;;;;;;4990042;28;20401;-74
2021/04/15 06:39:33;;;;;;;4.32;3.92;;;;;;;;;;4991876;28;20737;-73
2021/04/15 06:42:17;;;;;;;4.70;4.18;;;;;;;;;;4989298;28;20410;-75
2021/04/15 06:45:02;;;;;;;5.22;4.40;;;;;;;;;;4987668;28;20884;-74
2021/04/15 06:47:47;;;;;;;4.20;3.80;;;;;;;;;;4986979;28;20446;-75
2021/04/15 06:50:36;;;;;;;5.22;4.05;;;;;;;;;;4989611;28;20405;-74
2021/04/15 06:53:15;;;;;;;4.88;4.03;;;;;;;;;;4946628;28;20394;-73
2021/04/15 06:56:02;;;;;;;8.13;4.93;;;;;;;;;;5009796;28;20865;-74
2021/04/15 06:58:28;;;;;;;6.35;4.00;;;;;;;;;;5011862;28;20430;-74
2021/04/15 07:01:30;;;;;;;4.70;4.18;;;2.30;99.90;;;;;;5008503;28;20491;-73
2021/04/15 07:04:11;;;;;;;4.80;4.30;;;;;;;;;;5010789;28;20388;-72
2021/04/15 07:06:40;;;;;;;5.68;4.53;;;;;;;;;;5006692;28;20387;-72
2021/04/15 07:09:09;;;;;;;5.90;5.30;;;;;;;;;;4991620;28;20801;-73
2021/04/15 07:11:39;;;;;;;8.32;5.40;;;;;;;;;;5012130;28;20462;-72
2021/04/15 07:14:18;;;;;;;7.22;5.47;;;;;;;;;;4987786;28;20396;-73
2021/04/15 07:16:52;;;;;;;6.73;5.50;;;;;;;;;;5007690;28;20917;-71
2021/04/15 07:19:18;;;;;;;5.80;5.30;;;;;;;;;;5012023;28;20426;-71
2021/04/15 07:22:08;;;;;;;5.80;5.20;;;2.80;99.90;;;;;;5004051;28;20877;-73
2021/04/15 07:24:50;;;;;;;8.63;5.50;;;;;;;;;;5009963;28;20457;-72
2021/04/15 07:27:30;;;;;;;7.28;5.25;;;;;;;;;;5009768;28;20394;-74
2021/04/15 07:30:11;;;;;;;5.15;4.63;;;;;;;;;;5009952;28;20391;-72
2021/04/15 07:33:16;;;;;;;6.97;5.70;;;3.10;99.90;;;;;;4993368;28;20400;-72
2021/04/15 07:36:01;;;;;;;6.65;5.20;;;;;;;;;;4992161;28;21469;-74
2021/04/15 07:38:46;;;;;;;5.82;5.22;;;;;;;;;;5009663;28;20455;-73
2021/04/15 07:41:20;;;;;;;6.68;5.20;;;;;;;;;;5009490;28;20442;-72
2021/04/15 07:43:48;;;;;;;6.50;5.00;;;;;;;;;;5007483;28;20424;-72
2021/04/15 07:46:43;;;;;;;6.10;5.30;;;;;;;;;;5009970;28;20381;-73
2021/04/15 07:49:15;;;;;;;5.90;5.32;;;;;;;;;;4994655;28;21229;-72
2021/04/15 07:51:44;;;;;;;6.30;5.60;;;;;;;;;;5004167;28;20443;-72
2021/04/15 07:54:17;;;;;;;7.83;5.37;;;;;;;;;;5011338;28;20379;-72
2021/04/15 07:56:59;;;;;;;6.90;5.68;;;;;;;;;;4990043;28;20429;-72
2021/04/15 08:00:12;;;;;;;6.43;5.28;;;4.60;99.90;;;;;;5007261;28;20498;-72
2021/04/15 08:02:50;;;;;;;6.07;5.38;;;;;;;;;;4935974;28;20524;-71
2021/04/15 08:05:34;;;;;;;6.43;5.03;;;;;;;;;;4980914;28;20400;-72
2021/04/15 08:08:06;;;;;;;6.75;5.40;;;;;;;;;;5007886;28;20747;-72
2021/04/15 08:10:32;;;;;;;6.33;5.70;;;;;;;;;;5004565;28;20393;-73
2021/04/15 08:13:27;;;;;;;5.40;4.90;;;4.50;99.90;;;;;;5009455;28;20891;-72
2021/04/15 08:16:02;;;;;;;6.10;5.30;;;;;;;;;;5007574;28;20424;-72
2021/04/15 08:18:47;;;;;;;5.90;4.78;;;;;;;;;;5001937;28;20552;-73
2021/04/15 08:21:32;;;;;;;5.88;5.28;;;;;;;;;;4986958;28;20417;-73
2021/04/15 08:24:16;;;;;;;5.63;4.97;;;;;;;;;;5010904;28;20951;-72
2021/04/15 08:26:52;;;;;;;5.38;4.78;;;;;;;;;;5004790;28;20473;-75
2021/04/15 08:29:37;;;;;;;7.13;5.47;;;;;;;;;;5009440;28;20381;-72
2021/04/15 08:32:09;;;;;;;5.47;4.75;;;;;;;;;;5011968;28;20385;-72
2021/04/15 08:35:00;;;;;;;6.47;5.25;;;5.10;99.90;;;;;;5005736;28;20397;-74
2021/04/15 08:37:39;;;;;;;5.40;4.67;;;;;;;;;;5007716;28;20503;-72
2021/04/15 08:40:16;;;;;;;5.17;4.30;;;;;;;;;;5008344;28;20391;-74
2021/04/15 08:42:50;;;;;;;5.70;5.00;;;;;;;;;;5009980;28;20437;-73
2021/04/15 08:45:35;;;;;;;6.38;4.13;;;;;;;;;;5008641;28;20419;-72
2021/04/15 08:48:20;;;;;;;5.20;4.30;;;5.60;99.90;;;;;;5008804;28;20371;-73
2021/04/15 08:50:52;;;;;;;4.40;4.00;;;;;;;;;;5005902;28;20486;-72
2021/04/15 08:53:33;;;;;;;5.35;4.38;;;;;;;;;;5008198;28;20757;-69
2021/04/15 08:56:04;;;;;;;7.60;4.13;;;;;;;;;;5013828;28;20381;-68
2021/04/15 08:58:48;;;;;;;4.63;3.87;;;;;;;;;;5009644;28;21066;-73
2021/04/15 09:01:37;;;;;;;4.53;3.70;;;;;;;;;;5006707;28;20393;-70
2021/04/15 09:04:07;;;;;;;4.82;4.20;;;;;;;;;;4996854;28;20414;-69
2021/04/15 09:06:42;;;;;;;4.95;3.90;;;;;;;;;;5013832;28;20388;-71
2021/04/15 09:09:22;;;;;;;5.10;3.85;;;;;;;;;;5010854;28;20522;-70
2021/04/15 09:11:51;;;;;;;4.67;3.90;;;;;;;;;;5010982;28;20385;-68
2021/04/15 09:14:17;;;;;;;4.60;3.45;;;;;;;;;;5007367;28;20420;-72
2021/04/15 09:16:48;;;;;;;4.20;3.80;;;;;;;;;;4991783;28;20438;-71
2021/04/15 09:19:20;;;;;;;4.90;3.70;;;;;;;;;;5010237;28;20396;-72
2021/04/15 09:22:18;;;;;;;5.45;3.70;;;6.60;99.90;;;;;;5006214;28;20454;-69
2021/04/15 09:25:06;;;;;;;3.47;3.17;;;6.60;99.90;;;;;;4985769;28;20771;-69
2021/04/15 09:27:41;;;;;;;3.88;3.10;;;;;;;;;;5010371;28;20399;-73
2021/04/15 09:30:10;;;;;;;3.65;3.20;;;;;;;;;;5010368;28;20389;-74
2021/04/15 09:32:55;;;;;;;4.82;2.90;;;;;;;;;;5011352;28;20867;-74
2021/04/15 09:35:31;;;;;;;3.30;2.90;;;;;;;;;;5012088;28;20383;-72
2021/04/15 09:38:03;;;;;;;3.20;2.90;;;;;;;;;;5009150;28;20412;-70
2021/04/15 09:40:48;;;;;;;5.40;3.25;;;7.60;98.30;;;;;;5007823;28;21150;-73
2021/04/15 09:43:34;;;;;;;3.72;2.65;;;;;;;;;;5006262;28;20540;-69
2021/04/15 09:46:09;;;;;;;3.40;2.50;;;;;;;;;;4981086;28;20671;-73
2021/04/15 09:48:40;;;;;;;3.65;2.60;;;7.80;95.20;;;;;;5008368;28;20527;-74
2021/04/15 09:51:15;;;;;;;2.80;2.50;;;;;;;;;;4985341;28;20464;-74
2021/04/15 09:54:01;;;;;;;3.55;2.20;;;7.60;99.90;;;;;;4986149;28;20431;-73
2021/04/15 09:56:44;;;;;;;2.65;2.42;;;;;;;;;;5010878;28;21141;-74
2021/04/15 09:59:30;;;;;;;2.53;2.33;;;;;;;;;;5013370;28;20391;-73
2021/04/15 10:02:06;;;;;;;3.35;2.97;;;;;;;;;;5014001;28;20411;-74
2021/04/15 10:04:33;;;;;;;6.40;3.55;;;;;;;;;;5011619;28;20377;-72
2021/04/15 10:07:05;;;;;;;3.20;2.60;;;;;;;;;;4992470;28;20398;-73
2021/04/15 10:10:11;;;;;;;2.80;2.50;;;7.60;94.00;;;;;;5009166;28;20842;-72
2021/04/15 10:12:37;;;;;;;3.30;2.50;;;;;;;;;;5009136;28;20435;-75
2021/04/15 10:15:25;;;;;;;2.97;2.67;;;7.90;95.20;;;;;;5009869;28;20397;-73
2021/04/15 10:17:54;;;;;;;2.00;1.60;;;;;;;;;;5012295;28;20413;-73
2021/04/15 10:20:26;;;;;;;1.58;1.30;;;;;;;;;;5012090;28;20997;-73
2021/04/15 10:23:17;;;;;;;1.42;1.33;;;9.70;85.10;;;;;;5011985;28;20815;-73
2021/04/15 10:26:01;;;;;;;1.65;1.30;;;9.40;80.20;;;;;;5011722;28;20420;-74
2021/04/15 10:28:38;;;;;;;2.00;1.30;;;;;;;;;;4993440;28;20458;-75
2021/04/15 10:31:07;;;;;;;2.33;1.42;;;;;;;;;;4991654;28;20424;-74
2021/04/15 10:33:48;;;;;;;1.70;1.20;;;;;;;;;;5013149;28;20881;-73
2021/04/15 10:36:28;;;;;;;1.50;1.35;;;8.40;91.10;;;;;;5004554;28;20387;-72
2021/04/15 10:39:32;;;;;;;2.60;1.50;;;8.30;85.20;;;;;;5004848;28;20407;-73
2021/04/15 10:42:22;;;;;;;2.47;1.30;;;8.10;77.80;;;;;;4977966;28;20444;-75
2021/04/15 10:45:10;;;;;;;1.50;1.40;;;8.20;86.00;;;;;;4988745;28;20985;-75
2021/04/15 10:47:39;;;;;;;2.60;1.00;;;;;;;;;;4988943;28;20410;-75
2021/04/15 10:50:12;;;;;;;1.35;1.20;;;;;;;;;;4989582;28;20453;-75
2021/04/15 10:53:12;;;;;;;1.25;1.08;;;8.20;82.10;;;;;;4989793;28;21077;-74
2021/04/15 10:55:40;;;;;;;2.70;1.40;;;;;;;;;;4980703;28;20400;-75
2021/04/15 10:58:25;;;;;;;1.20;1.10;;;;;;;;;;4988980;28;20496;-73
2021/04/15 11:00:51;;;;;;;1.03;0.93;;;;;;;;;;4986910;28;20393;-74
2021/04/15 11:03:18;;;;;;;1.90;1.27;;;;;;;;;;4985116;28;20378;-75
2021/04/15 11:05:45;;;;;;;2.13;1.20;;;;;;;;;;4990206;28;20381;-72
2021/04/15 11:08:18;;;;;;;1.70;1.08;;;;;;;;;;4989408;28;20407;-73
2021/04/15 11:10:45;;;;;;;1.98;1.10;;;;;;;;;;4981182;28;20413;-73
2021/04/15 11:13:24;;;;;;;2.13;1.40;;;9.60;84.40;;;;;;4986051;28;20475;-73
2021/04/15 11:15:50;;;;;;;2.45;2.25;;;;;;;;;;4987271;28;20652;-72
2021/04/15 11:18:25;;;;;;;2.10;1.92;;;;;;;;;;4993061;28;20831;-73
2021/04/15 11:20:52;;;;;;;2.80;1.90;;;;;;;;;;4988350;28;20886;-73
2021/04/15 11:23:18;;;;;;;2.38;1.83;;;;;;;;;;4988483;28;20424;-74
2021/04/15 11:25:46;;;;;;;1.30;1.00;;;;;;;;;;4986327;28;20746;-74
2021/04/15 11:28:29;;;;;;;2.92;1.50;;;9.10;75.80;;;;;;4992337;28;20393;-75
2021/04/15 11:31:09;;;;;;;2.10;1.80;;;9.10;70.10;;;;;;4988692;28;20393;-74
2021/04/15 11:33:41;;;;;;;1.83;1.20;;;;;;;;;;4988251;28;20390;-76
2021/04/15 11:36:13;;;;;;;1.40;1.30;;;;;;;;;;4989692;28;20474;-74
2021/04/15 11:38:41;;;;;;;2.40;1.20;;;;;;;;;;4989244;28;20414;-75
2021/04/15 11:41:20;;;;;;;2.00;1.40;;;;;;;;;;4986999;28;20394;-73
2021/04/15 11:43:48;;;;;;;2.13;1.30;;;10.40;67.40;;;;;;4999670;28;20455;-73
2021/04/15 11:46:24;;;;;;;1.55;1.23;;;10.10;64.60;;;;;;5010358;28;21091;-72
2021/04/15 11:49:16;;;;;;;1.40;1.30;;;;;;;;;;4990698;28;20438;-73
2021/04/15 11:51:54;;;;;;;1.80;1.02;;;;;;;;;;4972778;28;20404;-74
2021/04/15 11:54:39;;;;;;;1.60;1.20;;;12.00;58.60;;;;;;5011489;28;20386;-74
2021/04/15 11:57:20;;;;;;;1.63;1.10;;;;;;;;;;5010958;28;20412;-73
2021/04/15 12:00:02;;;;;;;1.20;1.10;;;;;;;;;;5008456;28;20381;-75
2021/04/15 12:02:34;;;;;;;2.00;1.13;;;;;;;;;;5006527;28;20466;-75
2021/04/15 12:05:21;;;;;;;1.50;1.40;;;11.40;64.70;;;;;;5011091;28;20457;-73
2021/04/15 12:08:07;;;;;;;2.20;1.30;;;;;;;;;;5008679;28;20400;-73
2021/04/15 12:10:36;;;;;;;1.48;1.38;;;;;;;;;;5010051;28;20410;-74
2021/04/15 12:13:04;;;;;;;1.33;1.23;;;;;;;;;;5009720;28;21272;-73
2021/04/15 12:15:39;;;;;;;1.30;1.15;;;;;;;;;;4990377;28;20966;-74
2021/04/15 12:18:21;;;;;;;1.67;1.20;;;9.30;72.80;;;;;;5006625;28;20480;-74
2021/04/15 12:21:05;;;;;;;1.30;1.13;;;;;;;;;;5006792;28;20567;-74
2021/04/15 12:23:52;;;;;;;1.30;1.00;;;9.40;73.80;;;;;;5005216;28;20405;-74
2021/04/15 12:26:36;;;;;;;1.98;1.20;;;10.00;79.30;;;;;;5006149;28;20411;-73
2021/04/15 12:29:16;;;;;;;2.90;1.83;;;10.40;73.00;;;;;;5009110;28;20436;-75
2021/04/15 12:31:45;;;;;;;4.05;2.00;;;;;;;;;;5004706;28;20392;-75
2021/04/15 12:34:26;;;;;;;1.90;1.73;;;;;;;;;;5010698;28;20389;-74
2021/04/15 12:36:57;;;;;;;4.03;2.00;;;;;;;;;;5005423;28;20488;-74
2021/04/15 12:39:27;;;;;;;2.65;1.85;;;10.70;69.70;;;;;;5010720;28;20481;-75
2021/04/15 12:41:55;;;;;;;2.20;1.80;;;10.60;69.30;;;;;;4987774;28;21114;-74
2021/04/15 12:44:25;;;;;;;2.28;2.08;;;10.00;68.00;;;;;;5009311;28;20404;-74
2021/04/15 12:46:54;;;;;;;2.30;1.53;;;10.20;79.70;;;;;;5007733;28;20428;-72
2021/04/15 12:49:25;;;;;;;3.17;1.80;;;;;;;;;;5008049;28;20528;-76
2021/04/15 12:51:58;;;;;;;2.90;1.40;;;;;;;;;;5006204;28;20451;-74
2021/04/15 12:54:34;;;;;;;1.30;1.20;;;9.90;71.10;;;;;;5007422;28;20441;-75
2021/04/15 12:57:02;;;;;;;1.10;0.98;;;9.40;67.70;;;;;;5011677;28;20500;-75
2021/04/15 12:59:40;;;;;;;0.98;0.98;;;9.70;65.40;;;;;;5012629;28;20431;-75
2021/04/15 13:02:15;;;;;;;1.40;1.20;;;9.30;74.70;;;;;;5002235;28;20503;-75
2021/04/15 13:04:44;;;;;;;3.33;1.30;;;;;;;;;;5010146;28;20713;-76
2021/04/15 13:07:14;;;;;;;0.98;0.80;;;9.40;68.60;;;;;;5010981;28;20396;-75
2021/04/15 13:09:44;;;;;;;1.50;1.27;;;;;;;;;;5006439;28;20894;-76
2021/04/15 13:12:36;;;;;;;1.10;0.90;;;9.20;67.30;;;;;;5009988;28;20385;-74
2021/04/15 13:15:28;;;;;;;2.17;1.20;;;9.20;71.10;;;;;;5004593;28;20486;-75
2021/04/15 13:17:55;;;;;;;2.05;1.00;;;;;;;;;;5010142;28;20418;-74
2021/04/15 13:20:22;;;;;;;1.30;1.20;;;9.50;71.80;;;;;;5006615;28;20411;-74
2021/04/15 13:23:09;;;;;;;1.25;1.10;;;;;;;;;;5007084;28;20551;-74
2021/04/15 13:25:57;;;;;;;1.30;1.20;;;9.20;71.00;;;;;;5008590;28;20453;-76
2021/04/15 13:28:47;;;;;;;1.77;1.43;;;;;;;;;;4996909;28;20445;-76
2021/04/15 13:31:32;;;;;;;1.83;1.73;;;;;;;;;;5008045;28;20758;-74
2021/04/15 13:34:04;;;;;;;2.00;1.52;;;;;;;;;;5009586;28;20383;-75
2021/04/15 13:36:31;;;;;;;2.10;1.20;;;;;;;;;;5012759;28;20478;-73
2021/04/15 13:39:04;;;;;;;1.95;1.33;;;;;;;;;;5008527;28;20924;-75
2021/04/15 13:41:54;;;;;;;1.70;1.23;;;;;;;;;;5011420;28;20404;-74
2021/04/15 13:44:39;;;;;;;2.70;1.35;;;;;;;;;;4999849;28;20467;-74
2021/04/15 13:47:42;;;;;;;1.67;1.58;;;10.00;68.30;;;;;;5010547;28;20415;-74
2021/04/15 13:50:08;;;;;;;2.30;1.40;;;;;;;;;;5005520;28;20410;-74
2021/04/15 13:52:37;;;;;;;5.30;1.80;;;;;;;;;;5010683;28;21144;-74
2021/04/15 13:55:43;;;;;;;2.00;1.40;;;10.00;76.70;;;;;;5011260;28;20400;-73
2021/04/15 13:58:10;;;;;;;3.25;1.75;;;;;;;;;;4992897;28;20415;-76
2021/04/15 14:00:41;;;;;;;2.30;1.70;;;9.80;67.80;;;;;;5008885;28;20381;-73
2021/04/15 14:03:31;;;;;;;1.83;1.60;;;9.90;73.40;;;;;;5008767;28;20491;-73
2021/04/15 14:06:06;;;;;;;1.50;1.40;;;;;;;;;;4991084;28;20892;-75
2021/04/15 14:08:46;;;;;;;1.88;1.50;;;;;;;;;;5010564;28;20415;-73
2021/04/15 14:11:28;;;;;;;1.80;1.40;;;11.10;64.80;;;;;;4993929;28;20397;-74
2021/04/15 14:13:57;;;;;;;2.20;1.50;;;12.30;60.70;;;;;;5011159;28;20393;-74
2021/04/15 14:16:27;;;;;;;1.60;1.50;;;;;;;;;;5013185;28;20392;-74
2021/04/15 14:19:17;;;;;;;2.67;1.75;;;12.40;60.10;;;;;;5010977;28;20410;-73
2021/04/15 14:21:45;;;;;;;1.90;1.75;;;;;;;;;;4991672;28;20406;-74
2021/04/15 14:24:27;;;;;;;2.35;1.90;;;13.20;60.50;;;;;;5012227;28;20487;-73
2021/04/15 14:26:56;;;;;;;2.40;1.70;;;;;;;;;;5016313;28;20393;-74
2021/04/15 14:29:40;;;;;;;2.30;1.75;;;13.70;59.80;;;;;;5013294;28;20381;-74
2021/04/15 14:32:09;;;;;;;2.03;1.70;;;13.40;56.90;;;;;;5010611;28;20960;-73
2021/04/15 14:34:38;;;;;;;2.17;1.67;;;;;;;;;;5004143;28;21124;-73
2021/04/15 14:37:14;;;;;;;1.50;1.38;;;12.00;60.00;;;;;;5010323;28;20412;-75
2021/04/15 14:39:58;;;;;;;1.30;1.20;;;11.40;60.00;;;;;;5012036;28;20427;-75
2021/04/15 14:42:27;;;;;;;2.75;1.52;;;;;;;;;;5010154;28;20391;-74
2021/04/15 14:44:57;;;;;;;2.03;1.70;;;;;;;;;;5010775;28;20469;-74
2021/04/15 14:47:45;;;;;;;3.80;1.70;;;10.50;61.90;;;;;;5009624;28;20410;-74
2021/04/15 14:50:31;;;;;;;1.70;1.60;;;;;;;;;;5004732;28;20458;-76
2021/04/15 14:53:15;;;;;;;2.80;2.00;;;;;;;;;;5007961;28;20412;-76
2021/04/15 14:55:41;;;;;;;1.90;1.70;;;;;;;;;;4993094;28;20686;-74
2021/04/15 14:58:33;;;;;;;1.92;1.65;;;10.50;63.80;;;;;;4990067;28;20995;-74
2021/04/15 15:01:00;;;;;;;1.67;1.38;;;;;;;;;;5004261;28;20413;-76
2021/04/15 15:03:37;;;;;;;2.60;1.70;;;;;;;;;;4994840;28;21220;-74
2021/04/15 15:06:06;;;;;;;2.67;1.70;;;10.10;76.90;;;;;;5013456;28;20388;-75